Time;durP1;ratioP1;P1;durP2;ratioP2;P2;SDS_P1;SDS_P2;PMS_P1;PMS_P2;Temp;Humidity;BMP_temperature;BMP_pressure;BME280_temperature;BME280_humidity;BME280_pressure;Samples;Min_cycle;Max_cycle;Signal;HPM_P1;HPM_P2
2023/07/09 00:02:01;;;;;;;12.27;4.97;;;12.40;99.90;;;11.31;86.54;101794.97;5010144;28;20079;-74
2023/07/09 00:04:28;;;;;;;8.38;4.95;;;12.40;99.90;;;11.32;90.90;101793.19;5014527;28;20045;-74
2023/07/09 00:07:00;;;;;;;11.38;5.32;;;12.40;99.90;;;11.40;93.77;101794.69;5003235;28;20030;-74
2023/07/09 00:09:25;;;;;;;8.45;4.47;;;12.50;99.90;;;11.44;94.67;101798.94;5006605;28;20045;-74
2023/07/09 00:11:51;;;;;;;8.75;4.35;;;12.50;99.90;;;11.46;94.10;101804.16;5008614;28;20041;-74
2023/07/09 00:14:17;;;;;;;7.15;3.40;;;12.50;99.90;;;11.33;92.14;101811.59;5008754;28;20062;-74
2023/07/09 00:16:48;;;;;;;8.52;3.63;;;12.40;99.90;;;11.22;89.30;101804.03;5013164;28;20124;-74
2023/07/09 00:19:20;;;;;;;12.32;6.07;;;12.30;99.90;;;11.17;88.85;101805.97;5007418;28;20057;-74
2023/07/09 00:21:49;;;;;;;13.80;6.45;;;12.20;99.90;;;11.15;92.21;101802.53;5006872;28;20081;-74
2023/07/09 00:24:15;;;;;;;14.00;7.60;;;12.30;99.90;;;11.23;96.39;101808.41;5010047;28;20053;-74
2023/07/09 00:26:41;;;;;;;12.90;6.70;;;12.30;99.90;;;11.33;99.87;101805.47;5015267;28;20041;-74
2023/07/09 00:29:13;;;;;;;18.45;8.55;;;12.40;99.90;;;11.41;100.00;101806.94;5027946;28;20034;-74
2023/07/09 00:31:40;;;;;;;17.83;8.57;;;12.50;99.90;;;11.49;100.00;101814.63;5009687;28;20037;-74
2023/07/09 00:34:13;;;;;;;15.40;7.85;;;12.60;99.90;;;11.56;100.00;101815.28;5017733;28;20057;-74
2023/07/09 00:36:39;;;;;;;15.82;7.82;;;12.60;99.90;;;11.61;100.00;101815.97;5015012;28;20075;-74
2023/07/09 00:39:15;;;;;;;14.40;8.65;;;12.60;99.90;;;11.66;100.00;101819.31;5009872;28;20527;-74
2023/07/09 00:41:41;;;;;;;17.52;8.98;;;12.70;99.90;;;11.69;100.00;101813.94;5010297;28;20045;-75
2023/07/09 00:44:30;;;;;;;15.77;9.18;;;12.70;99.90;;;11.69;100.00;101817.44;5016741;28;20033;-74
2023/07/09 00:47:02;;;;;;;15.40;9.02;;;12.70;99.90;;;11.68;100.00;101818.38;5008150;28;20038;-74
2023/07/09 00:49:36;;;;;;;13.93;8.60;;;12.70;99.90;;;11.65;100.00;101807.91;4999075;28;20033;-74
2023/07/09 00:52:29;;;;;;;21.50;8.60;;;12.70;99.90;;;11.65;100.00;101815.81;5008727;28;20061;-74
2023/07/09 00:54:57;;;;;;;12.27;7.72;;;12.70;99.90;;;11.65;100.00;101810.53;5007520;28;20397;-74
2023/07/09 00:57:26;;;;;;;16.27;8.50;;;12.70;99.90;;;11.66;100.00;101808.75;5010419;28;20490;-74
2023/07/09 01:00:00;;;;;;;13.73;8.50;;;12.70;99.90;;;11.68;100.00;101806.94;5010661;28;20033;-74
2023/07/09 01:02:26;;;;;;;16.63;7.35;;;12.70;99.90;;;11.69;100.00;101811.31;5008138;28;20034;-74
2023/07/09 01:05:00;;;;;;;14.77;7.38;;;12.70;99.90;;;11.65;100.00;101807.91;5007191;28;20160;-74
2023/07/09 01:07:28;;;;;;;17.10;8.10;;;12.70;99.90;;;11.58;100.00;101808.19;5003202;28;20068;-74
2023/07/09 01:09:54;;;;;;;13.63;7.38;;;12.60;99.90;;;11.55;100.00;101806.47;5011116;28;20021;-75
2023/07/09 01:12:22;;;;;;;12.25;7.85;;;12.60;99.90;;;11.50;100.00;101809.28;4999036;28;20590;-75
2023/07/09 01:14:52;;;;;;;20.25;9.27;;;12.60;99.90;;;11.54;100.00;101809.19;5023775;28;20398;-75
2023/07/09 01:17:19;;;;;;;18.70;9.68;;;12.60;99.90;;;11.52;100.00;101811.03;5011569;28;20049;-74
2023/07/09 01:19:50;;;;;;;16.90;7.40;;;12.60;99.90;;;11.52;100.00;101809.22;5010010;28;20148;-74
2023/07/09 01:22:20;;;;;;;15.00;9.35;;;12.50;99.90;;;11.53;100.00;101808.31;5012389;28;20033;-74
2023/07/09 01:25:01;;;;;;;17.52;10.07;;;12.60;99.90;;;11.57;100.00;101809.06;5006529;28;20079;-74
2023/07/09 01:27:34;;;;;;;15.85;9.00;;;12.60;99.90;;;11.58;100.00;101816.09;5025705;28;20033;-74
2023/07/09 01:30:06;;;;;;;22.45;8.90;;;12.60;99.90;;;11.59;100.00;101815.16;5016925;28;20091;-74
2023/07/09 01:32:33;;;;;;;21.52;9.48;;;12.60;99.90;;;11.55;100.00;101821.44;5007398;28;20390;-74
2023/07/09 01:35:04;;;;;;;22.15;9.77;;;12.60;99.90;;;11.48;100.00;101813.75;4991032;28;20026;-74
2023/07/09 01:37:32;;;;;;;18.42;9.68;;;12.60;99.90;;;11.42;100.00;101813.09;5016000;28;20406;-75
2023/07/09 01:39:58;;;;;;;19.02;9.75;;;12.50;99.90;;;11.38;100.00;101814.97;4998619;28;20394;-74
2023/07/09 01:42:28;;;;;;;23.42;11.32;;;12.50;99.90;;;11.42;100.00;101821.84;5009629;28;20029;-74
2023/07/09 01:44:54;;;;;;;23.58;12.55;;;12.50;99.90;;;11.46;100.00;101827.91;5007999;28;20029;-74
2023/07/09 01:47:23;;;;;;;24.08;12.85;;;12.60;99.90;;;11.50;100.00;101825.09;5009976;28;20041;-74
2023/07/09 01:49:50;;;;;;;37.75;13.00;;;12.50;99.90;;;11.54;100.00;101832.94;5011824;28;21035;-74
2023/07/09 01:52:19;;;;;;;25.67;13.48;;;12.60;99.90;;;11.51;100.00;101844.41;5017141;28;20179;-74
2023/07/09 01:54:49;;;;;;;32.55;14.65;;;12.50;99.90;;;11.47;100.00;101834.91;4992881;28;20029;-75
2023/07/09 01:57:23;;;;;;;25.02;13.00;;;12.50;99.90;;;11.45;100.00;101828.81;5010081;28;20026;-74
2023/07/09 01:59:54;;;;;;;27.08;14.88;;;12.50;99.90;;;11.47;100.00;101834.91;5010174;28;20061;-74
2023/07/09 02:02:22;;;;;;;26.45;13.68;;;12.50;99.90;;;11.52;100.00;101837.41;4971620;28;20099;-74
2023/07/09 02:04:51;;;;;;;33.63;14.30;;;12.60;99.90;;;11.54;100.00;101838.22;5015801;28;20394;-74
2023/07/09 02:07:19;;;;;;;26.08;14.10;;;12.60;99.90;;;11.52;100.00;101843.53;5016914;28;20096;-74
2023/07/09 02:09:46;;;;;;;22.58;13.68;;;12.50;99.90;;;11.51;100.00;101844.41;5013778;28;20029;-74
2023/07/09 02:12:13;;;;;;;27.27;15.30;;;12.50;99.90;;;11.51;100.00;101847.06;5024951;28;20402;-74
2023/07/09 02:14:40;;;;;;;32.42;15.48;;;12.50;99.90;;;11.51;100.00;101847.06;5009802;28;20060;-74
2023/07/09 02:17:07;;;;;;;28.02;14.38;;;12.50;99.90;;;11.51;100.00;101841.78;5009421;28;20045;-75
2023/07/09 02:19:33;;;;;;;29.50;14.73;;;12.60;99.90;;;11.52;100.00;101845.31;4992857;28;20046;-74
2023/07/09 02:21:59;;;;;;;34.95;16.13;;;12.50;99.90;;;11.57;100.00;101841.59;5022639;28;20397;-74
2023/07/09 02:24:26;;;;;;;29.35;15.07;;;12.60;99.90;;;11.61;100.00;101843.22;5010070;28;20052;-74
2023/07/09 02:26:57;;;;;;;29.13;14.90;;;12.70;99.90;;;11.61;100.00;101851.13;4993630;28;20044;-74
2023/07/09 02:29:24;;;;;;;22.50;12.05;;;12.60;99.90;;;11.60;100.00;101841.50;5009835;28;20038;-75
2023/07/09 02:31:52;;;;;;;10.27;6.40;;;12.60;99.90;;;11.57;100.00;101854.78;5015892;28;20083;-74
2023/07/09 02:34:19;;;;;;;8.48;5.60;;;12.50;99.90;;;11.36;100.00;101858.09;5007856;28;20049;-74
2023/07/09 02:36:45;;;;;;;9.57;6.00;;;12.40;99.90;;;11.17;100.00;101848.16;5014627;28;20037;-74
2023/07/09 02:39:13;;;;;;;9.85;4.95;;;12.20;99.90;;;10.97;100.00;101839.97;5008173;28;20076;-74
2023/07/09 02:41:40;;;;;;;4.65;3.42;;;12.00;99.90;;;10.81;100.00;101845.72;5014962;28;20069;-75
2023/07/09 02:44:06;;;;;;;9.45;6.07;;;11.90;99.90;;;10.72;100.00;101834.59;5009325;28;20026;-75
2023/07/09 02:46:32;;;;;;;22.48;9.52;;;11.80;99.90;;;10.66;100.00;101836.50;5007894;28;20038;-74
2023/07/09 02:48:58;;;;;;;18.40;10.38;;;11.80;99.90;;;10.71;100.00;101830.22;5012401;28;20029;-73
2023/07/09 02:51:28;;;;;;;19.20;11.00;;;11.80;99.90;;;10.79;100.00;101833.50;5014180;28;20052;-74
2023/07/09 02:53:55;;;;;;;21.05;10.60;;;11.90;99.90;;;10.86;100.00;101846.47;4994117;28;20045;-75
2023/07/09 02:56:21;;;;;;;17.42;10.02;;;11.90;99.90;;;10.89;100.00;101845.50;5019381;28;20179;-75
2023/07/09 02:58:47;;;;;;;16.15;7.65;;;12.00;99.90;;;10.91;100.00;101845.44;5011360;28;20026;-74
2023/07/09 03:01:13;;;;;;;24.13;12.13;;;12.00;99.90;;;10.90;100.00;101844.56;5015038;28;20103;-74
2023/07/09 03:03:40;;;;;;;22.98;13.25;;;11.90;99.90;;;10.93;100.00;101849.78;5003670;28;20037;-74
2023/07/09 03:06:06;;;;;;;24.02;14.13;;;12.00;99.90;;;10.99;100.00;101851.34;5001073;28;20032;-74
2023/07/09 03:08:32;;;;;;;21.80;11.82;;;12.00;99.90;;;11.03;100.00;101848.56;5016788;28;20433;-74
2023/07/09 03:10:58;;;;;;;20.55;12.52;;;12.10;99.90;;;11.11;100.00;101848.34;5013304;28;20036;-74
2023/07/09 03:13:24;;;;;;;21.27;11.98;;;12.20;99.90;;;11.20;100.00;101853.31;5010018;28;20061;-73
2023/07/09 03:15:57;;;;;;;31.85;15.90;;;12.20;99.90;;;11.23;100.00;101855.00;5016569;28;20406;-73
2023/07/09 03:18:23;;;;;;;32.08;15.15;;;12.20;99.90;;;11.27;100.00;101853.97;5011373;28;20502;-74
2023/07/09 03:20:50;;;;;;;21.23;12.00;;;12.30;99.90;;;11.33;100.00;101863.50;5013038;28;20041;-73
2023/07/09 03:23:16;;;;;;;9.93;6.57;;;12.30;99.90;;;11.35;100.00;101866.94;5012607;28;20033;-74
2023/07/09 03:25:43;;;;;;;10.20;3.92;;;12.20;99.90;;;11.11;100.00;101869.44;5018089;28;20038;-73
2023/07/09 03:28:10;;;;;;;5.10;4.30;;;12.10;99.90;;;10.93;100.00;101859.44;5011397;28;20048;-73
2023/07/09 03:30:44;;;;;;;7.57;5.63;;;11.90;99.90;;;10.81;100.00;101866.78;5002431;28;20049;-73
2023/07/09 03:33:12;;;;;;;6.05;4.43;;;11.80;99.90;;;10.72;97.78;101864.44;5018159;28;20036;-73
2023/07/09 03:35:38;;;;;;;6.72;4.85;;;11.80;99.90;;;10.71;96.05;101875.88;5014718;28;20731;-74
2023/07/09 03:38:05;;;;;;;10.73;6.50;;;11.80;99.90;;;10.73;96.04;101868.78;5011866;28;20068;-74
2023/07/09 03:40:32;;;;;;;12.40;7.82;;;11.80;99.90;;;10.78;96.37;101874.81;5012028;28;20052;-74
2023/07/09 03:42:58;;;;;;;20.05;9.30;;;11.80;99.90;;;10.87;96.93;101873.66;5010032;28;20489;-73
2023/07/09 03:45:24;;;;;;;711.10;20.23;;;12.00;99.90;;;11.19;97.89;101880.59;5010354;28;20099;-74
2023/07/09 03:47:50;;;;;;;162.20;14.20;;;13.60;99.90;;;12.79;96.19;101900.78;5011502;28;20041;-74
2023/07/09 03:50:16;;;;;;;23.27;10.05;;;15.30;99.90;;;14.69;91.50;101908.91;5010285;28;20143;-74
2023/07/09 03:52:42;;;;;;;11.05;7.25;;;17.00;99.90;;;16.58;82.73;101910.28;5011909;28;20033;-73
2023/07/09 03:55:09;;;;;;;10.18;5.93;;;18.60;99.90;;;18.34;73.42;101901.28;5052915;23;20045;-74
2023/07/09 03:57:35;;;;;;;13.13;5.53;;;20.10;99.90;;;19.91;67.35;101901.13;5028038;28;20033;-75
2023/07/09 04:00:04;;;;;;;8.63;5.00;;;21.40;99.90;;;21.23;62.50;101913.28;5024876;28;20124;-75
2023/07/09 04:02:31;;;;;;;8.80;5.13;;;22.60;99.90;;;22.35;58.75;101918.31;5028304;28;20112;-75
2023/07/09 04:04:56;;;;;;;11.07;6.15;;;23.60;99.90;;;23.31;55.50;101930.44;5005681;28;20571;-75
2023/07/09 04:07:23;;;;;;;12.07;5.55;;;24.40;99.90;;;24.07;53.37;101943.88;5021718;28;20025;-74
2023/07/09 04:09:48;;;;;;;7.88;4.95;;;25.10;99.90;;;24.84;51.60;101956.13;5018248;28;20041;-75
2023/07/09 04:12:14;;;;;;;9.20;4.70;;;25.80;99.30;;;25.68;50.08;101961.22;5016935;28;20041;-75
2023/07/09 04:14:41;;;;;;;9.80;4.50;;;26.50;98.10;;;26.51;48.84;101973.25;5015868;28;20120;-74
2023/07/09 04:17:06;;;;;;;7.45;4.30;;;27.20;97.20;;;27.23;47.59;101984.44;5008749;28;20057;-75
2023/07/09 04:19:32;;;;;;;8.07;4.03;;;27.70;95.60;;;27.86;46.40;101997.13;5021489;28;20044;-75
2023/07/09 04:21:58;;;;;;;5.93;3.83;;;28.20;95.60;;;28.46;45.61;102001.88;5000965;28;20502;-75
2023/07/09 04:24:26;;;;;;;;;;;28.60;94.40;;;28.93;44.16;102020.50;5012396;28;20153;-75
2023/07/09 04:26:56;;;;;;;9.15;4.13;;;29.10;94.20;;;29.60;43.70;102023.34;5002371;28;19955;-75
2023/07/09 04:29:23;;;;;;;7.75;4.00;;;29.40;93.50;;;29.59;43.70;102016.25;5021165;28;20655;-75
2023/07/09 04:31:48;;;;;;;6.82;3.72;;;29.70;93.00;;;29.78;43.60;102022.41;5018392;28;20041;-75
2023/07/09 04:34:17;;;;;;;8.05;4.00;;;30.10;93.00;;;30.33;42.83;102020.97;5010515;28;20048;-76
2023/07/09 04:36:42;;;;;;;9.23;4.03;;;30.30;92.60;;;30.66;42.31;102025.31;5005675;28;20034;-75
2023/07/09 04:39:09;;;;;;;6.07;3.85;;;30.70;92.70;;;31.37;41.42;102038.22;5017920;28;20498;-75
2023/07/09 04:41:34;;;;;;;5.90;3.55;;;31.10;92.30;;;31.88;40.81;102046.81;5000342;28;20087;-75
2023/07/09 04:44:00;;;;;;;6.55;3.33;;;31.70;92.90;;;33.15;39.28;102052.50;5011290;28;20072;-75
2023/07/09 04:46:26;;;;;;;5.63;3.45;;;32.40;92.10;;;34.21;37.94;102049.34;5016842;28;20052;-75
2023/07/09 04:48:52;;;;;;;5.28;3.33;;;33.10;91.10;;;34.94;36.60;102055.41;5015386;28;20606;-76
2023/07/09 04:51:20;;;;;;;9.02;3.42;;;33.60;90.90;;;35.55;36.00;102065.59;5020251;28;20395;-76
2023/07/09 04:53:45;;;;;;;8.40;2.97;;;34.20;90.30;;;36.37;35.04;102077.41;5010860;28;20091;-76
2023/07/09 04:56:12;;;;;;;7.00;2.92;;;34.80;86.60;;;36.82;34.28;102085.00;5017630;28;20493;-76
2023/07/09 04:58:38;;;;;;;4.88;2.67;;;35.20;87.00;;;37.27;33.33;102082.38;5015229;28;20044;-76
2023/07/09 05:01:04;;;;;;;6.35;3.17;;;35.50;84.70;;;37.76;32.95;102095.50;5017760;28;20033;-76
2023/07/09 05:03:29;;;;;;;5.88;2.92;;;35.90;83.40;;;38.11;32.55;102095.09;5018812;28;20060;-76
2023/07/09 05:05:56;;;;;;;4.18;2.60;;;36.20;81.30;;;38.44;31.63;102104.97;5018429;28;20164;-76
2023/07/09 05:08:22;;;;;;;8.35;2.53;;;36.40;80.80;;;38.61;31.38;102110.78;5016170;28;20122;-77
2023/07/09 05:10:51;;;;;;;7.75;2.50;;;36.40;79.80;;;38.70;30.80;102108.59;5033003;28;20037;-77
2023/07/09 05:13:18;;;;;;;7.53;2.47;;;36.30;80.10;;;38.45;30.84;102103.09;5006554;28;20033;-77
2023/07/09 05:15:46;;;;;;;8.68;2.83;;;36.30;81.70;;;38.70;30.90;102109.44;4999873;28;20091;-76
2023/07/09 05:18:14;;;;;;;7.28;2.55;;;36.60;79.80;;;39.40;30.05;102110.22;5015949;28;20052;-76
2023/07/09 05:20:44;;;;;;;3.80;2.30;;;36.40;78.80;;;38.80;30.90;102110.84;5018588;28;20049;-77
2023/07/09 05:23:10;;;;;;;5.93;2.60;;;36.60;79.10;;;39.24;30.10;102103.41;4997152;28;20033;-77
2023/07/09 05:25:37;;;;;;;4.75;2.50;;;36.90;78.50;;;39.76;29.50;102104.66;4990144;28;20049;-76
2023/07/09 05:28:04;;;;;;;5.18;2.20;;;37.20;78.60;;;40.03;29.26;102107.06;5015043;28;20045;-76
2023/07/09 05:30:30;;;;;;;3.58;2.42;;;36.70;76.30;;;38.36;31.29;102099.75;4992626;28;20540;-76
2023/07/09 05:32:57;;;;;;;5.22;2.03;;;36.70;78.70;;;38.83;30.44;102085.59;4999636;28;20475;-76
2023/07/09 05:35:25;;;;;;;5.43;2.00;;;36.90;77.30;;;39.52;29.69;102086.31;5002456;28;20029;-76
2023/07/09 05:37:53;;;;;;;8.27;2.20;;;36.20;77.20;;;37.89;31.00;102069.84;5015226;28;20404;-77
2023/07/09 05:40:18;;;;;;;5.93;2.60;;;35.80;78.80;;;38.03;31.10;102070.59;5018887;28;20069;-77
2023/07/09 05:42:44;;;;;;;4.65;2.53;;;35.80;77.00;;;38.36;30.34;102072.25;5006093;28;20435;-77
2023/07/09 05:45:10;;;;;;;5.50;2.40;;;36.30;77.70;;;39.07;29.58;102072.88;5016312;28;20026;-77
2023/07/09 05:47:36;;;;;;;5.75;2.30;;;36.60;77.60;;;39.46;29.05;102084.50;5016362;28;20036;-77
2023/07/09 05:50:04;;;;;;;6.15;2.10;;;36.90;76.40;;;39.88;28.69;102096.44;5014222;28;20184;-76
2023/07/09 05:52:30;;;;;;;5.63;2.55;;;37.30;72.70;;;39.67;28.22;102105.22;4997593;28;20120;-76
2023/07/09 05:54:56;;;;;;;7.43;2.08;;;37.30;74.30;;;39.73;27.72;102101.53;5007228;28;20121;-77
2023/07/09 05:57:22;;;;;;;7.93;2.30;;;37.50;72.40;;;39.96;27.53;102112.66;5008228;28;20067;-77
2023/07/09 05:59:48;;;;;;;3.92;2.10;;;37.80;72.40;;;40.64;26.88;102117.97;5016418;28;20041;-77
2023/07/09 06:02:17;;;;;;;4.60;2.30;;;38.20;70.30;;;40.49;27.00;102115.66;5014726;28;20120;-77
2023/07/09 06:04:42;;;;;;;3.85;1.98;;;38.30;70.30;;;40.43;27.22;102109.19;4995578;28;20092;-77
2023/07/09 06:07:13;;;;;;;6.25;2.40;;;38.40;68.70;;;39.50;27.11;102097.56;5018028;28;20034;-77
2023/07/09 06:09:39;;;;;;;8.50;2.60;;;37.70;68.90;;;38.59;28.21;102098.34;5007597;28;20441;-78
2023/07/09 06:12:06;;;;;;;6.65;2.25;;;37.90;71.40;;;40.03;27.42;102104.28;5015746;28;20083;-77
2023/07/09 06:14:33;;;;;;;5.13;2.10;;;38.40;69.50;;;40.24;26.41;102113.06;4992721;28;21460;-77
2023/07/09 06:17:00;;;;;;;5.82;2.25;;;38.60;68.70;;;40.22;26.30;102120.75;5016659;28;20033;-77
2023/07/09 06:19:26;;;;;;;4.90;2.28;;;38.60;65.90;;;39.29;27.01;102109.03;5017344;28;20091;-77
2023/07/09 06:21:52;;;;;;;4.25;2.30;;;37.90;66.30;;;38.12;27.82;102095.94;5009884;28;20174;-77
2023/07/09 06:24:18;;;;;;;4.75;2.20;;;37.90;66.50;;;38.21;27.93;102097.34;5019271;28;20063;-77
2023/07/09 06:26:44;;;;;;;5.68;2.20;;;37.10;68.00;;;37.66;28.33;102075.88;5017479;28;20588;-78
2023/07/09 06:29:10;;;;;;;7.45;2.15;;;37.10;69.90;;;38.51;27.68;102077.44;5018681;28;20518;-77
2023/07/09 06:31:43;;;;;;;3.92;2.30;;;36.70;67.70;;;37.19;28.16;102061.50;5015936;28;20149;-77
2023/07/09 06:34:09;;;;;;;5.43;2.00;;;36.80;69.00;;;37.92;27.81;102074.03;5019476;28;20042;-77
2023/07/09 06:36:36;;;;;;;4.47;2.10;;;36.70;67.70;;;36.86;29.06;102069.81;4992891;28;20121;-77
2023/07/09 06:39:02;;;;;;;4.10;2.00;;;36.30;67.60;;;36.41;29.82;102055.91;5002838;28;20087;-77
2023/07/09 06:41:28;;;;;;;4.80;1.95;;;36.80;68.60;;;37.92;27.90;102068.53;5017759;28;20764;-78
2023/07/09 06:43:57;;;;;;;4.13;2.15;;;36.60;68.00;;;37.09;28.87;102058.38;5011783;28;20037;-77
2023/07/09 06:46:22;;;;;;;5.05;2.05;;;36.90;65.50;;;37.20;27.73;102062.34;5017720;28;20432;-77
2023/07/09 06:48:48;;;;;;;5.75;1.95;;;37.20;65.50;;;37.70;26.76;102062.56;5011815;28;20045;-77
2023/07/09 06:51:14;;;;;;;4.75;1.88;;;37.10;64.90;;;37.28;27.47;102065.69;5020956;28;20115;-77
2023/07/09 06:53:40;;;;;;;6.75;2.08;;;37.60;66.10;;;38.30;26.98;102075.91;4981289;28;20060;-77
2023/07/09 06:56:06;;;;;;;5.90;2.17;;;37.70;65.50;;;38.19;27.65;102079.38;5016186;28;20037;-77
2023/07/09 06:58:33;;;;;;;3.90;1.83;;;38.20;65.40;;;38.80;26.75;102084.16;5027996;28;20584;-78
2023/07/09 07:01:03;;;;;;;5.20;2.25;;;38.40;65.00;;;38.88;27.12;102078.34;5020879;28;20038;-77
2023/07/09 07:03:30;;;;;;;6.22;1.83;;;38.70;66.50;;;39.37;26.41;102087.53;5000756;28;20042;-77
2023/07/09 07:05:57;;;;;;;4.85;2.25;;;38.70;64.10;;;38.70;26.70;102078.31;5007718;28;20094;-77
2023/07/09 07:08:25;;;;;;;4.75;1.73;;;39.00;63.50;;;39.20;25.98;102086.47;5021063;28;20037;-77
2023/07/09 07:11:02;;;;;;;5.25;1.90;;;39.30;63.10;;;39.43;25.18;102101.50;5002980;28;20104;-77
2023/07/09 07:13:30;;;;;;;4.43;1.83;;;39.10;60.70;;;38.88;25.98;102094.88;5022557;28;20037;-76
2023/07/09 07:15:56;;;;;;;5.32;1.67;;;38.60;61.70;;;38.12;26.64;102085.78;5015680;28;20487;-77
2023/07/09 07:18:23;;;;;;;3.75;1.77;;;39.00;60.70;;;38.88;25.43;102086.63;5019851;28;20045;-78
2023/07/09 07:20:49;;;;;;;2.88;1.58;;;38.90;58.50;;;37.83;25.67;102083.63;5004282;28;20041;-77
2023/07/09 07:23:15;;;;;;;3.83;1.58;;;38.40;60.00;;;37.71;26.31;102081.59;5012497;28;20030;-77
2023/07/09 07:25:41;;;;;;;3.00;1.65;;;38.20;61.20;;;37.81;26.45;102075.59;5019485;28;20086;-77
2023/07/09 07:28:10;;;;;;;18.58;1.95;;;38.10;61.60;;;37.99;26.60;102071.25;4996335;28;20057;-78
2023/07/09 07:30:35;;;;;;;7.57;1.80;;;37.90;60.60;;;37.72;25.98;102064.03;5025448;28;20099;-78
2023/07/09 07:33:01;;;;;;;7.35;2.00;;;38.10;62.50;;;38.49;25.59;102074.94;5037484;28;20081;-78
2023/07/09 07:35:27;;;;;;;3.00;1.58;;;38.00;57.40;;;37.69;25.09;102080.97;5020003;28;20121;-77
2023/07/09 07:37:53;;;;;;;4.50;1.50;;;37.70;58.60;;;37.29;25.40;102081.09;5012955;28;20095;-77
2023/07/09 07:40:19;;;;;;;1.95;1.55;;;37.30;59.80;;;36.68;26.07;102068.56;5008630;28;20530;-78
2023/07/09 07:42:46;;;;;;;5.25;1.50;;;37.10;60.20;;;36.82;26.29;102061.16;4994914;28;20109;-77
2023/07/09 07:45:12;;;;;;;4.60;1.70;;;37.00;58.20;;;36.54;25.96;102066.84;5000123;28;20503;-77
2023/07/09 07:47:40;;;;;;;2.33;1.48;;;36.50;58.00;;;35.73;26.32;102054.13;5019699;28;20110;-77
2023/07/09 07:50:07;;;;;;;4.65;1.27;;;36.30;57.90;;;35.70;26.03;102055.38;5021688;28;20494;-78
2023/07/09 07:52:37;;;;;;;1.90;1.40;;;36.40;60.40;;;36.60;25.88;102057.78;5014868;28;20085;-77
2023/07/09 07:55:09;;;;;;;2.13;1.20;;;35.80;57.80;;;35.15;26.57;102043.56;5015542;28;20049;-77
2023/07/09 07:57:35;;;;;;;3.60;1.60;;;35.30;58.00;;;34.35;27.49;102039.38;4992001;28;20068;-77
2023/07/09 08:00:01;;;;;;;3.28;1.60;;;35.30;59.70;;;34.98;26.66;102036.69;5021568;28;20477;-77
2023/07/09 08:02:27;;;;;;;2.25;1.20;;;35.40;59.10;;;35.09;26.56;102030.63;5000856;28;20136;-77
2023/07/09 08:04:53;;;;;;;3.72;1.50;;;35.80;60.50;;;35.83;26.14;102037.25;5016575;28;20144;-77
2023/07/09 08:07:20;;;;;;;3.03;1.23;;;35.30;58.50;;;34.59;27.24;102018.97;5020227;28;20073;-77
2023/07/09 08:09:47;;;;;;;2.72;1.48;;;34.90;59.10;;;34.12;27.06;102013.09;5009686;28;20029;-77
2023/07/09 08:12:14;;;;;;;2.15;1.48;;;34.40;59.80;;;33.80;27.85;102007.13;5009652;28;20041;-77
2023/07/09 08:14:46;;;;;;;6.43;1.88;;;33.90;62.00;;;33.67;28.60;102001.50;5010692;28;21225;-77
2023/07/09 08:17:15;;;;;;;1.83;1.33;;;33.70;61.40;;;33.83;27.98;101997.69;5001147;28;20124;-77
2023/07/09 08:19:50;;;;;;;2.08;1.10;;;34.00;60.60;;;34.16;27.77;102000.75;4997579;28;20051;-77
2023/07/09 08:22:20;;;;;;;4.60;1.37;;;33.80;61.60;;;33.48;27.48;102005.69;5021802;28;20076;-77
2023/07/09 08:24:46;;;;;;;2.97;1.50;;;33.50;61.50;;;33.02;28.55;101995.84;5011984;28;20034;-77
2023/07/09 08:27:13;;;;;;;3.95;1.55;;;32.90;63.30;;;32.52;29.74;101982.94;5017823;28;20521;-77
2023/07/09 08:29:42;;;;;;;5.50;1.77;;;32.80;64.90;;;32.67;29.24;101970.19;5010773;28;20520;-77
2023/07/09 08:32:14;;;;;;;3.10;1.63;;;31.70;63.60;;;30.84;31.41;101943.56;5011640;28;20029;-77
2023/07/09 08:34:43;;;;;;;2.03;1.40;;;31.40;62.00;;;30.94;30.74;101939.81;5014468;28;20065;-77
2023/07/09 08:37:12;;;;;;;3.20;1.42;;;31.20;63.60;;;30.76;31.08;101938.16;5012155;28;20112;-77
2023/07/09 08:39:39;;;;;;;2.50;1.58;;;31.20;64.50;;;30.83;31.49;101938.28;5018585;28;20049;-77
2023/07/09 08:42:13;;;;;;;3.92;1.52;;;31.10;64.70;;;30.90;31.32;101933.03;5015622;28;20056;-77
2023/07/09 08:44:57;;;;;;;2.45;1.25;;;31.20;64.80;;;30.89;31.24;101932.19;5010082;28;20406;-77
2023/07/09 08:47:49;;;;;;;2.67;1.40;;;31.10;63.40;;;30.17;31.60;101921.25;5007951;28;20087;-77
2023/07/09 08:50:19;;;;;;;2.45;1.38;;;30.90;66.50;;;30.22;32.87;101918.91;5001887;28;20112;-77
2023/07/09 08:52:53;;;;;;;2.50;1.25;;;30.70;65.60;;;30.12;31.61;101910.91;5018546;28;20504;-77
2023/07/09 08:55:30;;;;;;;2.85;1.20;;;30.70;65.60;;;30.14;30.94;101916.19;5026331;28;20034;-77
2023/07/09 08:58:11;;;;;;;3.50;1.50;;;30.70;63.40;;;30.09;30.17;101914.00;5016365;28;20042;-76
2023/07/09 09:01:25;;;;;;;2.83;1.20;;;30.60;63.90;;;29.64;31.01;101916.16;5017268;28;20033;-77
2023/07/09 09:04:00;;;;;;;2.67;1.52;;;29.90;64.40;;;28.84;32.77;101896.78;5010507;28;20395;-77
2023/07/09 09:06:38;;;;;;;1.88;1.30;;;29.70;65.10;;;28.91;32.13;101897.00;5014841;28;20037;-77
2023/07/09 09:09:46;;;;;;;3.00;1.90;;;29.80;66.90;;;29.03;31.28;101895.69;5021472;28;20038;-76
2023/07/09 09:12:40;;;;;;;2.40;1.33;;;29.70;64.20;;;29.19;31.93;101889.47;5021041;28;20037;-77
2023/07/09 09:15:17;;;;;;;1.80;1.25;;;29.80;64.60;;;29.35;31.36;101891.34;5019058;28;20030;-77
2023/07/09 09:17:46;;;;;;;5.75;1.50;;;29.90;65.90;;;29.40;31.88;101891.72;5013417;28;20049;-77
2023/07/09 09:20:23;;;;;;;3.58;1.30;;;29.90;63.30;;;29.35;30.33;101907.63;5012861;28;20030;-77
2023/07/09 09:23:10;;;;;;;;;;;29.90;63.50;;;28.79;30.66;101908.13;5018612;28;20025;-77
2023/07/09 09:25:49;;;;;;;2.13;1.02;;;29.60;64.70;;;28.92;31.15;101898.66;5001954;28;19944;-77
2023/07/09 09:28:24;;;;;;;2.33;1.25;;;29.80;63.30;;;29.53;30.31;101902.94;5018550;28;20091;-76
2023/07/09 09:30:50;;;;;;;3.53;1.30;;;30.00;65.50;;;29.77;31.48;101899.41;5019954;28;20022;-77
2023/07/09 09:33:18;;;;;;;3.10;1.27;;;30.00;65.20;;;29.55;31.81;101905.50;5010493;28;20095;-76
2023/07/09 09:35:47;;;;;;;3.42;1.45;;;30.20;66.20;;;29.94;32.42;101905.69;5018197;28;20040;-77
2023/07/09 09:38:21;;;;;;;2.03;1.40;;;30.50;66.10;;;30.27;31.46;101908.34;5018369;28;20061;-76
2023/07/09 09:40:47;;;;;;;2.25;1.35;;;30.60;64.60;;;30.10;31.92;101910.25;5007460;28;20506;-77
2023/07/09 09:43:23;;;;;;;3.05;1.63;;;30.60;65.10;;;30.15;31.57;101907.00;5020573;28;20030;-77
2023/07/09 09:45:50;;;;;;;;;;;30.60;66.70;;;29.96;30.82;101909.09;5000824;28;20568;-77
2023/07/09 09:48:29;;;;;;;3.17;1.40;;;30.60;61.30;;;29.96;29.93;101914.50;5019359;28;19923;-76
2023/07/09 09:51:04;;;;;;;1.88;1.23;;;30.70;63.20;;;30.21;30.01;101922.63;5009796;28;20051;-77
2023/07/09 09:53:39;;;;;;;1.37;1.23;;;30.50;63.50;;;29.91;30.92;101921.47;4999676;28;20064;-77
2023/07/09 09:56:18;;;;;;;4.82;1.20;;;30.40;63.40;;;29.70;31.14;101913.81;5003265;28;20473;-77
2023/07/09 09:58:44;;;;;;;2.58;1.50;;;30.40;62.50;;;29.92;30.34;101913.16;5023138;28;20183;-76
2023/07/09 10:01:18;;;;;;;4.07;1.40;;;30.40;59.80;;;29.81;29.78;101921.66;5005984;28;20025;-77
2023/07/09 10:03:51;;;;;;;1.30;1.10;;;30.30;59.80;;;29.71;29.19;101927.22;5016677;28;20039;-77
2023/07/09 10:06:45;;;;;;;1.58;1.10;;;30.20;61.80;;;29.41;30.12;101921.38;5017772;28;20041;-77
2023/07/09 10:09:47;;;;;;;2.50;1.50;;;30.20;58.50;;;29.32;28.56;101924.25;5012582;28;20091;-76
2023/07/09 10:12:36;;;;;;;2.75;1.30;;;30.10;61.20;;;29.54;30.72;101910.03;5001592;28;20065;-76
2023/07/09 10:15:24;;;;;;;3.88;1.60;;;30.30;61.00;;;30.01;30.31;101914.00;4957767;28;20053;-76
2023/07/09 10:18:14;;;;;;;1.50;1.30;;;30.60;61.90;;;30.12;29.56;101912.78;4981589;28;20064;-77